createdAt,value
2019-04-23T00:02:16.956Z,56.50
2019-04-23T00:04:42.635Z,56.90
2019-04-23T00:07:32.107Z,57.30
2019-04-23T00:09:46.772Z,57.60
2019-04-23T00:12:23.681Z,57.70
2019-04-23T00:15:02.924Z,58.00
2019-04-23T00:17:24.748Z,58.20
2019-04-23T00:19:47.194Z,58.60
2019-04-23T00:22:28.954Z,58.80
2019-04-23T00:25:25.067Z,59.00
2019-04-23T00:30:11.087Z,59.50
2019-04-23T00:32:39.257Z,59.60
2019-04-23T00:35:09.167Z,59.90
2019-04-23T00:40:11.360Z,60.60
2019-04-23T00:42:42.795Z,61.20
2019-04-23T00:45:10.235Z,61.50
2019-04-23T00:47:48.266Z,62.00
2019-04-23T00:52:48.781Z,63.00
2019-04-23T00:55:14.487Z,63.60
2019-04-23T00:57:48.773Z,63.80
2019-04-23T01:07:49.777Z,65.70
2019-04-23T01:10:25.528Z,66.30
2019-04-23T01:12:53.794Z,66.70
2019-04-23T01:15:25.769Z,67.00
2019-04-23T01:20:29.168Z,68.00
2019-04-23T01:22:42.238Z,68.30
2019-04-23T01:25:34.196Z,68.70
2019-04-23T01:28:22.880Z,69.20
2019-04-23T01:30:56.698Z,69.60
2019-04-23T01:33:29.563Z,69.90
2019-04-23T01:36:06.171Z,70.20
2019-04-23T01:38:27.943Z,70.50
2019-04-23T01:40:46.098Z,70.80
2019-04-23T01:43:23.579Z,71.00
2019-04-23T01:45:49.167Z,71.90
2019-04-23T01:48:26.142Z,71.90
2019-04-23T01:50:58.877Z,72.50
2019-04-23T01:53:27.178Z,73.50
2019-04-23T01:56:03.045Z,74.00
2019-04-23T02:01:00.871Z,74.40
2019-04-23T02:03:37.829Z,74.70
2019-04-23T02:06:04.902Z,75.30
2019-04-23T02:08:32.240Z,75.60
2019-04-23T02:10:58.769Z,75.80
2019-04-23T02:13:51.634Z,76.40
2019-04-23T02:15:59.945Z,76.80
2019-04-23T02:21:07.584Z,77.60
2019-04-23T02:23:36.940Z,78.00
2019-04-23T02:26:10.675Z,78.50
2019-04-23T02:28:47.656Z,78.80
2019-04-23T02:33:53.452Z,79.20
2019-04-23T02:43:51.009Z,80.50
2019-04-23T02:46:17.678Z,80.80
2019-04-23T02:48:54.667Z,81.00
2019-04-23T02:54:23.683Z,81.50
2019-04-23T03:06:27.064Z,82.90
2019-04-23T03:09:06.389Z,83.10
2019-04-23T03:19:25.610Z,85.30
2019-04-23T03:24:38.902Z,85.10
2019-04-23T03:39:56.614Z,85.70
2019-04-23T03:47:24.185Z,86.20
2019-04-23T03:57:30.989Z,87.30
2019-04-23T04:04:44.546Z,88.20
2019-04-23T04:07:44.426Z,88.40
2019-04-23T04:09:51.722Z,89.00
2019-04-23T04:15:07.835Z,89.50
2019-04-23T04:20:10.904Z,89.30
2019-04-23T04:25:02.097Z,89.30
2019-04-23T04:27:38.383Z,89.30
2019-04-23T04:30:01.660Z,89.20
2019-04-23T04:32:30.814Z,89.20
2019-04-23T04:35:18.669Z,89.00
2019-04-23T04:40:16.062Z,88.90
2019-04-23T04:42:39.559Z,88.70
2019-04-23T04:45:36.986Z,88.50
2019-04-23T04:52:48.960Z,88.00
2019-04-23T04:57:40.070Z,87.40
2019-04-23T05:02:53.827Z,87.30
2019-04-23T05:05:44.480Z,87.40
2019-04-23T05:10:21.692Z,87.40
2019-04-23T05:12:36.034Z,87.40
2019-04-23T05:15:25.200Z,87.20
2019-04-23T05:18:08.116Z,87.10
2019-04-23T05:20:28.579Z,87.20
2019-04-23T05:23:07.013Z,87.30
2019-04-23T05:25:25.830Z,87.30
2019-04-23T05:33:09.990Z,87.30
2019-04-23T05:40:49.823Z,86.90
2019-04-23T05:43:03.287Z,86.80
2019-04-23T05:45:34.755Z,86.50
2019-04-23T05:48:12.968Z,86.40
2019-04-23T05:50:57.770Z,86.80
2019-04-23T05:55:46.016Z,86.10
2019-04-23T05:58:16.566Z,85.90
2019-04-23T06:00:45.017Z,85.70
2019-04-23T06:03:15.936Z,85.40
2019-04-23T06:05:48.907Z,85.60
2019-04-23T06:08:25.499Z,85.50
2019-04-23T06:13:21.008Z,85.00
2019-04-23T06:15:50.640Z,84.70
2019-04-23T06:18:25.316Z,84.70
2019-04-23T06:23:30.253Z,84.10
2019-04-23T06:26:12.025Z,84.10
2019-04-23T06:28:41.759Z,84.00
2019-04-23T06:33:27.365Z,83.00
2019-04-23T06:35:58.900Z,83.40
2019-04-23T06:38:40.175Z,83.10
2019-04-23T06:41:00.749Z,82.30
2019-04-23T06:43:51.379Z,82.10
2019-04-23T06:46:20.115Z,81.10
2019-04-23T06:48:47.209Z,81.10
2019-04-23T06:51:27.175Z,80.90
2019-04-23T06:53:51.292Z,80.60
2019-04-23T06:56:25.048Z,80.00
2019-04-23T06:58:47.294Z,80.80
2019-04-23T07:04:43.596Z,78.80
2019-04-23T07:07:31.097Z,78.90
2019-04-23T07:09:35.349Z,79.20
2019-04-23T07:12:08.640Z,78.60
2019-04-23T07:14:43.556Z,79.00
2019-04-23T07:17:18.294Z,78.80
2019-04-23T07:22:16.055Z,77.60
2019-04-23T07:24:45.733Z,77.30
2019-04-23T07:27:14.849Z,77.80
2019-04-23T07:29:50.632Z,76.90
2019-04-23T07:32:11.106Z,76.00
2019-04-23T07:34:52.645Z,75.90
2019-04-23T07:37:15.612Z,76.30
2019-04-23T07:39:57.086Z,75.70
2019-04-23T07:42:24.866Z,75.70
2019-04-23T07:45:03.627Z,75.30
2019-04-23T07:47:51.971Z,74.50
2019-04-23T07:53:01.353Z,75.10
2019-04-23T07:55:28.406Z,74.20
2019-04-23T07:58:01.994Z,73.80
2019-04-23T08:00:32.415Z,72.90
2019-04-23T08:03:01.546Z,71.80
2019-04-23T08:07:55.532Z,71.20
2019-04-23T08:10:34.376Z,70.40
2019-04-23T08:12:58.467Z,70.50
2019-04-23T08:15:32.740Z,69.60
2019-04-23T08:18:00.181Z,68.80
2019-04-23T08:20:30.781Z,68.90
2019-04-23T08:23:03.872Z,68.30
2019-04-23T08:25:34.023Z,66.40
2019-04-23T08:28:06.157Z,67.10
2019-04-23T08:30:33.420Z,66.40
2019-04-23T08:33:04.615Z,66.00
2019-04-23T08:38:25.162Z,66.00
2019-04-23T08:40:53.477Z,65.40
2019-04-23T08:45:55.021Z,64.80
2019-04-23T08:48:27.201Z,62.90
2019-04-23T08:51:07.455Z,61.40
2019-04-23T08:55:55.038Z,60.30
2019-04-23T08:58:32.113Z,60.50
2019-04-23T09:03:33.319Z,59.70
2019-04-23T09:06:06.347Z,59.80
2019-04-23T09:08:36.006Z,57.50
2019-04-23T09:16:01.796Z,56.40
2019-04-23T09:18:33.119Z,57.30
2019-04-23T09:21:07.372Z,55.30
2019-04-23T09:23:39.162Z,55.30
2019-04-23T09:26:02.496Z,54.60
2019-04-23T09:31:38.833Z,54.00
2019-04-23T09:34:00.554Z,52.70
2019-04-23T09:36:49.598Z,51.10
2019-04-23T09:39:24.096Z,50.40
2019-04-23T09:41:51.813Z,48.10
2019-04-23T09:44:58.182Z,48.20
2019-04-23T09:47:19.380Z,46.60
2019-04-23T09:49:56.737Z,43.30
2019-04-23T09:52:20.382Z,41.90
2019-04-23T09:55:02.097Z,40.60
2019-04-23T09:57:17.160Z,40.20
2019-04-23T09:59:51.396Z,40.60
2019-04-23T10:02:17.510Z,40.00
2019-04-23T10:04:47.609Z,39.00
2019-04-23T10:07:15.226Z,39.70
2019-04-23T10:09:30.082Z,38.10
2019-04-23T10:12:01.056Z,37.40
2019-04-23T10:14:30.427Z,37.40
2019-04-23T10:17:00.001Z,36.70
2019-04-23T10:19:30.670Z,35.50
2019-04-23T10:22:00.005Z,35.00
2019-04-23T10:24:34.978Z,33.90
2019-04-23T10:27:04.370Z,34.40
2019-04-23T10:29:36.376Z,34.30
2019-04-23T10:32:07.350Z,34.20
2019-04-23T10:34:47.544Z,34.10
2019-04-23T10:37:09.466Z,33.80
2019-04-23T10:39:42.750Z,32.50
2019-04-23T10:42:10.255Z,33.40
2019-04-23T10:44:45.831Z,32.60
2019-04-23T10:48:03.073Z,33.20
2019-04-23T10:50:44.499Z,33.20
2019-04-23T10:53:10.224Z,32.10
2019-04-23T10:55:44.784Z,31.70
2019-04-23T10:58:14.033Z,31.90
2019-04-23T11:00:42.748Z,31.90
2019-04-23T11:03:20.615Z,31.20
2019-04-23T11:08:11.886Z,30.80
2019-04-23T11:10:34.375Z,30.60
2019-04-23T11:13:18.611Z,30.60
2019-04-23T11:15:55.809Z,29.70
2019-04-23T11:18:08.831Z,29.70
2019-04-23T11:21:07.524Z,28.60
2019-04-23T11:23:11.596Z,29.30
2019-04-23T11:25:52.226Z,29.50
2019-04-23T11:30:57.315Z,29.60
2019-04-23T11:33:30.009Z,29.80
2019-04-23T11:36:18.739Z,30.80
2019-04-23T11:41:00.119Z,31.30
2019-04-23T11:48:52.282Z,31.00
2019-04-23T11:51:38.775Z,31.40
2019-04-23T11:53:44.359Z,32.00
2019-04-23T11:56:12.174Z,32.00
2019-04-23T12:01:38.529Z,31.30
2019-04-23T12:04:24.307Z,31.70
2019-04-23T12:06:44.385Z,31.30
2019-04-23T12:12:44.684Z,32.30
2019-04-23T12:17:41.157Z,30.60
2019-04-23T12:20:33.125Z,31.50
2019-04-23T12:22:51.241Z,32.00
2019-04-23T12:27:59.370Z,31.40
2019-04-23T12:30:30.152Z,30.90
2019-04-23T12:32:56.926Z,31.30
2019-04-23T12:38:03.289Z,30.90
2019-04-23T12:45:37.467Z,32.60
2019-04-23T12:53:10.645Z,30.20
2019-04-23T13:00:36.385Z,29.90
2019-04-23T13:03:21.568Z,30.40
2019-04-23T13:05:57.422Z,30.10
2019-04-23T13:10:47.978Z,29.20
2019-04-23T13:15:48.953Z,28.90
2019-04-23T13:18:19.356Z,29.30
2019-04-23T13:20:43.176Z,29.20
2019-04-23T13:23:26.287Z,28.50
2019-04-23T13:25:54.176Z,29.20
2019-04-23T13:28:27.991Z,28.80
2019-04-23T13:33:36.107Z,29.30
2019-04-23T13:36:13.303Z,28.80
2019-04-23T13:48:24.653Z,29.10
2019-04-23T13:51:09.846Z,28.80
2019-04-23T13:53:40.558Z,28.60
2019-04-23T13:56:15.104Z,28.70
2019-04-23T13:58:36.344Z,28.50
2019-04-23T14:03:41.314Z,29.90
2019-04-23T14:06:20.860Z,29.90
2019-04-23T14:08:55.222Z,29.80
2019-04-23T14:11:19.446Z,30.00
2019-04-23T14:13:49.737Z,29.70
2019-04-23T14:18:56.072Z,29.60
2019-04-23T14:21:18.907Z,30.00
2019-04-23T14:28:44.793Z,30.70
2019-04-23T14:31:16.680Z,30.20
2019-04-23T14:34:03.587Z,31.50
2019-04-23T14:36:25.366Z,32.10
2019-04-23T14:39:10.140Z,31.60
2019-04-23T14:41:23.691Z,31.80
2019-04-23T14:48:57.574Z,31.70
2019-04-23T14:54:03.024Z,32.30
2019-04-23T14:56:39.050Z,32.10
2019-04-23T15:01:35.368Z,32.60
2019-04-23T15:04:01.874Z,33.40
2019-04-23T15:06:39.019Z,33.90
2019-04-23T15:14:28.726Z,35.30
2019-04-23T15:19:23.633Z,34.70
2019-04-23T15:27:48.154Z,35.80
2019-04-23T15:28:58.675Z,36.60
2019-04-23T15:31:59.209Z,37.30
2019-04-23T15:41:59.209Z,37.10
2019-04-23T15:44:16.733Z,38.70
2019-04-23T15:49:22.927Z,40.90
2019-04-23T15:54:28.120Z,41.80
2019-04-23T15:56:55.092Z,42.40
2019-04-23T15:59:35.028Z,43.00
2019-04-23T16:01:41.355Z,43.50
2019-04-23T16:03:58.683Z,44.20
2019-04-23T16:06:30.938Z,45.00
2019-04-23T16:09:19.301Z,44.80
2019-04-23T16:12:07.627Z,45.30
2019-04-23T16:17:04.628Z,46.00
2019-04-23T16:19:46.012Z,46.30
2019-04-23T16:24:41.172Z,46.80
2019-04-23T16:32:20.952Z,47.80
2019-04-23T16:34:44.946Z,48.30
2019-04-23T16:37:22.848Z,49.00
2019-04-23T16:39:58.356Z,49.00
2019-04-23T16:42:26.737Z,49.80
2019-04-23T16:45:00.913Z,50.20
2019-04-23T16:47:26.147Z,50.30
2019-04-23T16:49:59.350Z,50.50
2019-04-23T16:52:21.555Z,50.90
2019-04-23T16:54:55.274Z,51.20
2019-04-23T16:57:29.091Z,51.50
2019-04-23T17:00:21.109Z,51.80
2019-04-23T17:02:24.748Z,52.50
2019-04-23T17:05:04.733Z,52.40
2019-04-23T17:07:22.154Z,53.10
2019-04-23T17:12:22.039Z,53.70
2019-04-23T17:15:15.080Z,54.00
2019-04-23T17:17:30.796Z,54.30
2019-04-23T17:20:08.915Z,54.30
2019-04-23T17:22:31.287Z,55.50
2019-04-23T17:25:13.375Z,55.10
2019-04-23T17:27:39.062Z,55.40
2019-04-23T17:32:34.607Z,56.00
2019-04-23T17:38:01.535Z,57.00
2019-04-23T17:46:05.371Z,58.50
2019-04-23T17:48:44.175Z,58.70
2019-04-23T17:53:48.763Z,59.50
2019-04-23T17:59:07.246Z,60.60
2019-04-23T18:01:20.056Z,61.10
2019-04-23T18:03:57.485Z,61.50
2019-04-23T18:09:06.096Z,62.50
2019-04-23T18:11:25.065Z,63.10
2019-04-23T18:13:57.098Z,63.40
2019-04-23T18:16:35.771Z,63.60
2019-04-23T18:19:12.673Z,64.20
2019-04-23T18:24:23.495Z,65.30
2019-04-23T18:27:01.260Z,65.80
2019-04-23T18:29:43.882Z,65.80
2019-04-23T18:32:30.194Z,66.30
2019-04-23T18:38:22.442Z,67.50
2019-04-23T18:41:01.303Z,68.50
2019-04-23T18:45:54.134Z,68.60
2019-04-23T18:51:22.624Z,69.40
2019-04-23T18:53:40.808Z,69.70
2019-04-23T18:56:06.697Z,70.00
2019-04-23T18:58:45.118Z,70.10
2019-04-23T19:03:55.228Z,70.60
2019-04-23T19:11:51.853Z,71.70
2019-04-23T19:14:19.938Z,72.10
2019-04-23T19:16:54.901Z,72.10
2019-04-23T19:19:09.553Z,72.30
2019-04-23T19:22:04.381Z,72.50
2019-04-23T19:24:18.608Z,72.60
2019-04-23T19:27:09.091Z,73.00
2019-04-23T19:29:21.272Z,72.90
2019-04-23T19:31:54.109Z,73.20
2019-04-23T19:34:35.631Z,73.20
2019-04-23T19:39:32.017Z,73.40
2019-04-23T19:44:34.534Z,74.20
2019-04-23T19:47:19.658Z,74.30
2019-04-23T19:54:44.248Z,74.70
2019-04-23T19:57:02.169Z,75.00
2019-04-23T20:02:08.000Z,75.30
2019-04-23T20:12:05.975Z,76.40
2019-04-23T20:14:50.492Z,76.60
2019-04-23T20:19:48.727Z,77.00
2019-04-23T20:22:25.595Z,77.20
2019-04-23T20:25:08.929Z,77.70
2019-04-23T20:27:35.494Z,77.80
2019-04-23T20:35:06.614Z,78.30
2019-04-23T20:40:11.482Z,78.90
2019-04-23T20:42:34.730Z,78.80
2019-04-23T20:45:16.986Z,79.00
2019-04-23T20:50:00.071Z,79.50
2019-04-23T20:52:41.409Z,79.70
2019-04-23T20:57:55.204Z,79.90
2019-04-23T21:00:32.493Z,80.10
2019-04-23T21:03:25.713Z,80.40
2019-04-23T21:05:27.915Z,80.60
2019-04-23T21:08:07.907Z,80.60
2019-04-23T21:13:16.068Z,80.70
2019-04-23T21:18:15.390Z,81.10
2019-04-23T21:20:40.115Z,81.50
2019-04-23T21:23:12.517Z,81.50
2019-04-23T21:25:47.532Z,81.70
2019-04-23T21:28:35.886Z,81.70
2019-04-23T21:36:29.050Z,82.20
2019-04-23T21:41:39.427Z,82.50
2019-04-23T21:46:30.658Z,82.80
2019-04-23T21:49:14.642Z,83.00
2019-04-23T21:51:38.961Z,83.20
2019-04-23T21:56:31.176Z,83.40
2019-04-23T21:59:06.285Z,83.50
2019-04-23T22:01:36.690Z,83.50
2019-04-23T22:11:56.789Z,83.90
2019-04-23T22:14:10.219Z,84.20
2019-04-23T22:19:15.032Z,84.20
2019-04-23T22:21:45.335Z,84.20
2019-04-23T22:26:45.387Z,84.30
2019-04-23T22:29:18.841Z,84.30
2019-04-23T22:31:50.670Z,84.30
2019-04-23T22:34:34.081Z,84.40
2019-04-23T22:37:01.859Z,84.40
2019-04-23T22:39:18.214Z,84.30
2019-04-23T22:44:20.870Z,84.40
2019-04-23T22:46:56.270Z,84.30
2019-04-23T22:49:29.030Z,84.30
2019-04-23T22:52:05.988Z,84.50
2019-04-23T22:54:25.955Z,84.40
2019-04-23T22:57:03.300Z,85.10
2019-04-23T22:59:34.197Z,84.40
2019-04-23T23:02:21.546Z,84.50
2019-04-23T23:05:00.194Z,84.60
2019-04-23T23:07:19.967Z,84.70
2019-04-23T23:12:21.345Z,84.80
2019-04-23T23:14:54.618Z,85.00
2019-04-23T23:17:20.718Z,85.10
2019-04-23T23:20:13.920Z,85.10
2019-04-23T23:22:31.424Z,85.10
2019-04-23T23:25:09.889Z,85.10
2019-04-23T23:27:31.644Z,85.20
2019-04-23T23:30:04.919Z,85.10
2019-04-23T23:32:31.525Z,85.20
2019-04-23T23:35:14.574Z,85.20
2019-04-23T23:37:27.703Z,85.40
2019-04-23T23:40:18.836Z,85.40
2019-04-23T23:42:37.551Z,85.50
2019-04-23T23:45:10.543Z,85.70
2019-04-23T23:47:39.533Z,85.60
2019-04-23T23:50:17.891Z,85.70
2019-04-23T23:52:48.949Z,85.90
2019-04-23T23:55:14.067Z,85.90
2019-04-23T23:57:41.664Z,85.90
